Stevensville, MT

11:41 PM MDT on September 17, 2014 (GMT -0600)
MPG Ranch - Orchard House | Change Station
CLOSE
Current Station
Personal Weather Station
Location: Florence, MT
Elevation: 3392 ft
Nearby Weather Stations

Elev 3392 ft 46.68 °N, 114.03 °W | Updated 5 minutes ago

Partly Cloudy
Partly Cloudy
63.6 °F
Feels Like 63.6 °F
N
4.0
Wind Variable Wind from NE
Gusts 6.0 mph

Today
High -- | Low -- °F
--% Chance of Precip.
Yesterday
High -- | Low -- °F
Precip. -- in
7:16 AM 7:43 PM
Waning Crescent, 30% visible
Pressure 29.75 in
Visibility 10.0 miles
Clouds Clear
Dew Point 50 °F
Humidity 62%
Rainfall 0.00 in
Snow Depth 0 in , 1 in , 0 in
UV 0.0 out of 12
Pollen 6.40 out of 12
Air Quality Not available.
Flu Activity Not available.
METAR KMSO 180453Z 00000KT 10SM CLR 18/09 A2978 RMK AO2 SLP072 T01830094

More Conditions Fewer Conditions

Pressure 29.75 in
Visibility 10.0 miles
Clouds Clear
Dew Point 50 °F
Humidity 62%
Rainfall 0.00 in
Snow Depth 0 in , 1 in , 0 in
UV 0.0 out of 12
Pollen 6.40 out of 12
Air Quality Not available.
Flu Activity Not available.
METAR KMSO 180453Z 00000KT 10SM CLR 18/09 A2978 RMK AO2 SLP072 T01830094

More Conditions Fewer Conditions

10-Day Weather Forecast

Almanac

Astronomy

Sep. 17, 2014 Rise Set
Actual Time 7:16 AM MDT 7:43 PM MDT
Civil Twilight 6:46 AM MDT 8:13 PM MDT
Nautical Twilight 6:10 AM MDT 8:49 PM MDT
Astronomical Twilight 5:33 AM MDT 9:26 PM MDT
Moon 1:05 AM MDT (9/17) 4:10 PM MDT (9/17)
Length of Visible Light 13h 27m
Length of Day
12h 26m
Tomorrow will be 3m 17s shorter.
Waning Crescent, 30% of the Moon is Illuminated
Sep 18
Waning Crescent
Sep 24
New
Oct 1
First Quarter
Oct 8
Full
Oct 15
Last Quarter

Yesterday's Extremes

State Highs State Lows

Community

WunderPhotos

Upload Photos

1,754,292 photos uploaded!

Nearby

Snow Depth

Station Depth Elevation
Stuart Mountain 0 in 7400 ft
Nevada Ridge 1 in 7020 ft
Emery Creek 0 in 4350 ft
Kraft Creek 0 in 4750 ft
Badger Pass 1 in 6900 ft

Earthquake Activity

City Distance Mag. Time & Date
No recent earthquake activity has been reported nearby.
Minimum magnitude displayed is 2.5.

Coastal Water Temperatures

Place Temperature
No Stations Reporting

Nearby Weather Stations